sensor_id;sensor_type;location;lat;lon;timestamp;pressure;altitude;pressure_sealevel;temperature;humidity
80644;BME280;70010;60.224;24.712;2024-02-23T00:02:20;99890.36;;;-0.74;68.56
80644;BME280;70010;60.224;24.712;2024-02-23T00:04:46;99885.80;;;-1.71;70.60
80644;BME280;70010;60.224;24.712;2024-02-23T00:07:11;99885.05;;;-1.54;68.21
80644;BME280;70010;60.224;24.712;2024-02-23T00:09:37;99882.36;;;-2.20;70.36
80644;BME280;70010;60.224;24.712;2024-02-23T00:12:03;99870.29;;;0.15;63.64
80644;BME280;70010;60.224;24.712;2024-02-23T00:14:28;99872.04;;;-0.44;64.63
80644;BME280;70010;60.224;24.712;2024-02-23T00:16:53;99871.04;;;-0.45;65.72
80644;BME280;70010;60.224;24.712;2024-02-23T00:19:19;99872.84;;;-1.42;67.42
80644;BME280;70010;60.224;24.712;2024-02-23T00:21:44;99875.54;;;-1.59;69.37
80644;BME280;70010;60.224;24.712;2024-02-23T00:24:10;99868.56;;;-0.60;66.02
80644;BME280;70010;60.224;24.712;2024-02-23T00:26:35;99868.67;;;-0.34;64.46
80644;BME280;70010;60.224;24.712;2024-02-23T00:29:00;99867.40;;;-0.23;63.50
80644;BME280;70010;60.224;24.712;2024-02-23T00:31:25;99866.34;;;-0.97;66.39
80644;BME280;70010;60.224;24.712;2024-02-23T00:33:51;99875.19;;;-2.86;70.85
80644;BME280;70010;60.224;24.712;2024-02-23T00:36:17;99869.07;;;-2.53;71.21
80644;BME280;70010;60.224;24.712;2024-02-23T00:38:43;99861.78;;;-1.53;69.15
80644;BME280;70010;60.224;24.712;2024-02-23T00:41:09;99865.39;;;-1.68;68.48
80644;BME280;70010;60.224;24.712;2024-02-23T00:43:38;99851.94;;;0.32;63.52
80644;BME280;70010;60.224;24.712;2024-02-23T00:45:59;99857.16;;;-2.73;71.11
80644;BME280;70010;60.224;24.712;2024-02-23T00:48:25;99857.37;;;-1.82;69.01
80644;BME280;70010;60.224;24.712;2024-02-23T00:50:50;99853.70;;;-1.97;70.01
80644;BME280;70010;60.224;24.712;2024-02-23T00:53:15;99842.12;;;-0.01;64.66
80644;BME280;70010;60.224;24.712;2024-02-23T00:55:41;99840.09;;;-0.27;64.17
80644;BME280;70010;60.224;24.712;2024-02-23T00:58:05;99838.43;;;-2.28;69.29
80644;BME280;70010;60.224;24.712;2024-02-23T01:00:31;99838.65;;;-1.00;68.30
80644;BME280;70010;60.224;24.712;2024-02-23T01:02:56;99834.37;;;-0.27;63.65
80644;BME280;70010;60.224;24.712;2024-02-23T01:05:21;99841.07;;;-2.04;68.52
80644;BME280;70010;60.224;24.712;2024-02-23T01:07:47;99838.12;;;-2.08;69.24
80644;BME280;70010;60.224;24.712;2024-02-23T01:10:13;99831.89;;;-1.73;68.26
80644;BME280;70010;60.224;24.712;2024-02-23T01:12:38;99822.43;;;-0.46;64.02
80644;BME280;70010;60.224;24.712;2024-02-23T01:15:04;99813.57;;;0.95;60.34
80644;BME280;70010;60.224;24.712;2024-02-23T01:17:29;99813.75;;;1.27;59.61
80644;BME280;70010;60.224;24.712;2024-02-23T01:19:54;99813.44;;;0.67;61.68
80644;BME280;70010;60.224;24.712;2024-02-23T01:22:19;99806.56;;;0.53;61.12
80644;BME280;70010;60.224;24.712;2024-02-23T01:24:45;99801.76;;;1.47;58.84
80644;BME280;70010;60.224;24.712;2024-02-23T01:27:10;99800.92;;;-1.07;64.76
80644;BME280;70010;60.224;24.712;2024-02-23T01:29:35;99800.60;;;-0.96;64.81
80644;BME280;70010;60.224;24.712;2024-02-23T01:32:00;99801.78;;;-1.53;66.53
80644;BME280;70010;60.224;24.712;2024-02-23T01:34:26;99807.52;;;-2.14;70.40
80644;BME280;70010;60.224;24.712;2024-02-23T01:36:51;99800.06;;;0.09;63.17
80644;BME280;70010;60.224;24.712;2024-02-23T01:39:17;99797.20;;;0.35;61.55
80644;BME280;70010;60.224;24.712;2024-02-23T01:41:42;99786.63;;;1.37;58.51
80644;BME280;70010;60.224;24.712;2024-02-23T01:44:07;99792.67;;;-0.67;63.00
80644;BME280;70010;60.224;24.712;2024-02-23T01:46:33;99790.05;;;-0.54;64.13
80644;BME280;70010;60.224;24.712;2024-02-23T01:48:58;99787.24;;;0.72;59.98
80644;BME280;70010;60.224;24.712;2024-02-23T01:51:24;99783.40;;;1.56;58.63
80644;BME280;70010;60.224;24.712;2024-02-23T01:53:49;99777.36;;;1.15;58.61
80644;BME280;70010;60.224;24.712;2024-02-23T01:56:15;99780.89;;;-0.89;63.28
80644;BME280;70010;60.224;24.712;2024-02-23T01:58:39;99778.99;;;-0.71;63.00
80644;BME280;70010;60.224;24.712;2024-02-23T02:01:05;99772.92;;;0.30;60.59
80644;BME280;70010;60.224;24.712;2024-02-23T02:03:30;99775.06;;;-0.65;62.77
80644;BME280;70010;60.224;24.712;2024-02-23T02:05:56;99770.90;;;0.51;60.95
80644;BME280;70010;60.224;24.712;2024-02-23T02:08:20;99770.12;;;0.76;60.21
80644;BME280;70010;60.224;24.712;2024-02-23T02:10:46;99766.97;;;0.34;60.66
80644;BME280;70010;60.224;24.712;2024-02-23T02:13:11;99763.02;;;-0.43;61.88
80644;BME280;70010;60.224;24.712;2024-02-23T02:15:37;99751.80;;;1.51;58.83
80644;BME280;70010;60.224;24.712;2024-02-23T02:18:02;99756.02;;;1.86;56.91
80644;BME280;70010;60.224;24.712;2024-02-23T02:20:28;99759.87;;;-0.61;62.72
80644;BME280;70010;60.224;24.712;2024-02-23T02:22:52;99755.44;;;0.61;61.71
80644;BME280;70010;60.224;24.712;2024-02-23T02:25:18;99758.51;;;-0.06;61.60
80644;BME280;70010;60.224;24.712;2024-02-23T02:27:42;99751.56;;;1.59;58.00
80644;BME280;70010;60.224;24.712;2024-02-23T02:30:08;99746.85;;;1.33;57.13
80644;BME280;70010;60.224;24.712;2024-02-23T02:32:33;99746.97;;;0.99;58.02
80644;BME280;70010;60.224;24.712;2024-02-23T02:34:58;99744.06;;;-0.56;63.11
80644;BME280;70010;60.224;24.712;2024-02-23T02:37:23;99736.59;;;-0.25;62.09
80644;BME280;70010;60.224;24.712;2024-02-23T02:39:49;99740.53;;;-2.93;71.92
80644;BME280;70010;60.224;24.712;2024-02-23T02:42:14;99734.43;;;-2.06;69.67
80644;BME280;70010;60.224;24.712;2024-02-23T02:44:39;99725.66;;;0.42;62.30
80644;BME280;70010;60.224;24.712;2024-02-23T02:47:06;99728.09;;;0.41;61.62
80644;BME280;70010;60.224;24.712;2024-02-23T02:49:31;99729.97;;;-1.37;65.06
80644;BME280;70010;60.224;24.712;2024-02-23T02:51:56;99730.36;;;-2.46;68.71
80644;BME280;70010;60.224;24.712;2024-02-23T02:54:21;99724.80;;;-0.09;63.73
80644;BME280;70010;60.224;24.712;2024-02-23T02:56:48;99723.32;;;-0.33;63.79
80644;BME280;70010;60.224;24.712;2024-02-23T02:59:12;99716.21;;;-1.04;64.17
80644;BME280;70010;60.224;24.712;2024-02-23T03:01:37;99708.25;;;0.58;60.60
80644;BME280;70010;60.224;24.712;2024-02-23T03:04:03;99712.90;;;-1.17;64.13
80644;BME280;70010;60.224;24.712;2024-02-23T03:06:27;99704.22;;;1.12;59.34
80644;BME280;70010;60.224;24.712;2024-02-23T03:08:53;99699.80;;;0.32;61.72
80644;BME280;70010;60.224;24.712;2024-02-23T03:11:18;99694.11;;;1.23;58.81
80644;BME280;70010;60.224;24.712;2024-02-23T03:13:44;99690.40;;;0.80;59.16
80644;BME280;70010;60.224;24.712;2024-02-23T03:16:14;99689.89;;;0.31;60.79
80644;BME280;70010;60.224;24.712;2024-02-23T03:18:35;99687.73;;;-0.55;63.39
80644;BME280;70010;60.224;24.712;2024-02-23T03:21:00;99678.34;;;1.53;58.25
80644;BME280;70010;60.224;24.712;2024-02-23T03:23:26;99674.01;;;-0.04;61.80
80644;BME280;70010;60.224;24.712;2024-02-23T03:25:52;99672.16;;;0.94;59.05
80644;BME280;70010;60.224;24.712;2024-02-23T03:28:17;99668.69;;;-0.72;64.80
80644;BME280;70010;60.224;24.712;2024-02-23T03:30:43;99668.00;;;-1.20;66.74
80644;BME280;70010;60.224;24.712;2024-02-23T03:33:08;99661.11;;;-0.19;64.54
80644;BME280;70010;60.224;24.712;2024-02-23T03:35:33;99655.59;;;0.42;61.36
80644;BME280;70010;60.224;24.712;2024-02-23T03:37:58;99648.22;;;0.16;61.68
80644;BME280;70010;60.224;24.712;2024-02-23T03:40:24;99648.88;;;-0.13;63.19
80644;BME280;70010;60.224;24.712;2024-02-23T03:42:50;99651.60;;;-1.60;66.26
80644;BME280;70010;60.224;24.712;2024-02-23T03:45:16;99650.80;;;-2.24;68.24
80644;BME280;70010;60.224;24.712;2024-02-23T03:47:42;99644.61;;;0.28;62.72
80644;BME280;70010;60.224;24.712;2024-02-23T03:50:07;99641.70;;;-0.28;63.85
80644;BME280;70010;60.224;24.712;2024-02-23T03:52:32;99637.15;;;-1.82;67.60
80644;BME280;70010;60.224;24.712;2024-02-23T03:54:58;99645.81;;;-1.19;67.38
80644;BME280;70010;60.224;24.712;2024-02-23T03:57:24;99639.93;;;-1.18;67.02
80644;BME280;70010;60.224;24.712;2024-02-23T03:59:53;99635.71;;;0.18;63.36
80644;BME280;70010;60.224;24.712;2024-02-23T04:02:15;99633.59;;;-0.27;62.67
80644;BME280;70010;60.224;24.712;2024-02-23T04:04:41;99634.78;;;1.22;60.07
80644;BME280;70010;60.224;24.712;2024-02-23T04:07:06;99624.23;;;-0.93;64.92
80644;BME280;70010;60.224;24.712;2024-02-23T04:09:31;99620.66;;;-1.44;67.19
80644;BME280;70010;60.224;24.712;2024-02-23T04:11:57;99621.09;;;-0.80;65.81
80644;BME280;70010;60.224;24.712;2024-02-23T04:14:22;99603.21;;;-1.00;65.68
80644;BME280;70010;60.224;24.712;2024-02-23T04:16:48;99611.19;;;-1.41;66.45
80644;BME280;70010;60.224;24.712;2024-02-23T04:19:13;99600.57;;;-1.66;69.61
80644;BME280;70010;60.224;24.712;2024-02-23T04:21:39;99597.64;;;0.29;63.45
80644;BME280;70010;60.224;24.712;2024-02-23T04:24:04;99596.94;;;0.21;62.95
80644;BME280;70010;60.224;24.712;2024-02-23T04:26:29;99588.86;;;-0.61;64.63
80644;BME280;70010;60.224;24.712;2024-02-23T04:28:55;99594.57;;;-1.92;68.54
80644;BME280;70010;60.224;24.712;2024-02-23T04:31:21;99594.24;;;-2.29;70.79
80644;BME280;70010;60.224;24.712;2024-02-23T04:33:47;99583.43;;;0.06;64.25
80644;BME280;70010;60.224;24.712;2024-02-23T04:36:12;99592.31;;;-2.08;70.47
80644;BME280;70010;60.224;24.712;2024-02-23T04:38:38;99576.45;;;-1.39;67.70
80644;BME280;70010;60.224;24.712;2024-02-23T04:41:04;99579.94;;;-1.03;66.95
80644;BME280;70010;60.224;24.712;2024-02-23T04:43:29;99568.65;;;-0.47;65.62
80644;BME280;70010;60.224;24.712;2024-02-23T04:45:54;99564.39;;;-0.74;65.76
80644;BME280;70010;60.224;24.712;2024-02-23T04:48:20;99563.34;;;-0.98;67.47
80644;BME280;70010;60.224;24.712;2024-02-23T04:50:46;99561.19;;;-1.36;67.53
80644;BME280;70010;60.224;24.712;2024-02-23T04:53:12;99556.92;;;-1.33;66.09
80644;BME280;70010;60.224;24.712;2024-02-23T04:55:37;99548.93;;;-1.03;65.64
80644;BME280;70010;60.224;24.712;2024-02-23T04:58:03;99545.53;;;-0.89;65.79
80644;BME280;70010;60.224;24.712;2024-02-23T05:00:28;99554.58;;;-0.50;65.50
80644;BME280;70010;60.224;24.712;2024-02-23T05:02:54;99553.37;;;-0.77;65.77
80644;BME280;70010;60.224;24.712;2024-02-23T05:05:20;99551.52;;;-0.45;65.21
80644;BME280;70010;60.224;24.712;2024-02-23T05:07:45;99545.24;;;-2.22;72.20
80644;BME280;70010;60.224;24.712;2024-02-23T05:10:11;99548.57;;;-2.05;72.33
80644;BME280;70010;60.224;24.712;2024-02-23T05:12:36;99540.97;;;-1.24;69.46
80644;BME280;70010;60.224;24.712;2024-02-23T05:15:02;99537.72;;;-1.70;70.13
80644;BME280;70010;60.224;24.712;2024-02-23T05:17:27;99537.81;;;0.44;63.05
80644;BME280;70010;60.224;24.712;2024-02-23T05:19:52;99530.04;;;-0.57;66.23
80644;BME280;70010;60.224;24.712;2024-02-23T05:22:18;99538.58;;;-1.29;67.27
80644;BME280;70010;60.224;24.712;2024-02-23T05:24:44;99533.77;;;-1.70;68.50
80644;BME280;70010;60.224;24.712;2024-02-23T05:27:09;99528.82;;;-0.98;66.69
80644;BME280;70010;60.224;24.712;2024-02-23T05:29:35;99534.48;;;-3.11;74.39
80644;BME280;70010;60.224;24.712;2024-02-23T05:32:00;99530.61;;;-1.25;69.18
80644;BME280;70010;60.224;24.712;2024-02-23T05:34:26;99525.39;;;-2.33;73.03
80644;BME280;70010;60.224;24.712;2024-02-23T05:36:51;99527.36;;;-1.66;71.87
80644;BME280;70010;60.224;24.712;2024-02-23T05:39:16;99525.78;;;-0.40;67.95
80644;BME280;70010;60.224;24.712;2024-02-23T05:41:42;99528.02;;;-2.10;71.02
80644;BME280;70010;60.224;24.712;2024-02-23T05:44:08;99527.64;;;-1.42;69.77
80644;BME280;70010;60.224;24.712;2024-02-23T05:46:34;99535.68;;;-1.95;70.26
80644;BME280;70010;60.224;24.712;2024-02-23T05:48:58;99532.70;;;-1.17;67.58
80644;BME280;70010;60.224;24.712;2024-02-23T05:51:24;99524.67;;;0.16;64.92
80644;BME280;70010;60.224;24.712;2024-02-23T05:53:49;99525.52;;;-0.21;65.48
80644;BME280;70010;60.224;24.712;2024-02-23T05:56:15;99527.80;;;-0.66;68.45
80644;BME280;70010;60.224;24.712;2024-02-23T05:58:40;99535.39;;;-1.59;68.27
80644;BME280;70010;60.224;24.712;2024-02-23T06:01:05;99536.85;;;-1.96;71.69
80644;BME280;70010;60.224;24.712;2024-02-23T06:03:30;99531.03;;;-1.59;70.01
80644;BME280;70010;60.224;24.712;2024-02-23T06:05:55;99530.11;;;0.42;64.16
80644;BME280;70010;60.224;24.712;2024-02-23T06:08:21;99524.09;;;-1.18;68.86
80644;BME280;70010;60.224;24.712;2024-02-23T06:10:47;99536.25;;;-0.03;65.67
80644;BME280;70010;60.224;24.712;2024-02-23T06:13:12;99542.61;;;-2.90;75.83
80644;BME280;70010;60.224;24.712;2024-02-23T06:15:37;99541.60;;;-2.27;74.93
80644;BME280;70010;60.224;24.712;2024-02-23T06:18:03;99537.55;;;-1.25;70.50
80644;BME280;70010;60.224;24.712;2024-02-23T06:20:28;99537.78;;;-0.64;67.69
80644;BME280;70010;60.224;24.712;2024-02-23T06:22:53;99542.06;;;-2.03;72.05
80644;BME280;70010;60.224;24.712;2024-02-23T06:25:18;99542.72;;;-0.01;66.20
80644;BME280;70010;60.224;24.712;2024-02-23T06:27:43;99544.51;;;-0.70;67.65
80644;BME280;70010;60.224;24.712;2024-02-23T06:30:10;99536.58;;;-0.69;68.02
80644;BME280;70010;60.224;24.712;2024-02-23T06:32:34;99543.25;;;-1.82;71.89
80644;BME280;70010;60.224;24.712;2024-02-23T06:35:00;99541.82;;;-0.99;69.15
80644;BME280;70010;60.224;24.712;2024-02-23T06:37:25;99544.04;;;-2.24;74.21
80644;BME280;70010;60.224;24.712;2024-02-23T06:39:51;99540.23;;;-2.65;76.11
80644;BME280;70010;60.224;24.712;2024-02-23T06:42:16;99541.63;;;0.20;66.63
80644;BME280;70010;60.224;24.712;2024-02-23T06:44:41;99540.05;;;-1.85;71.34
80644;BME280;70010;60.224;24.712;2024-02-23T06:47:07;99534.16;;;-1.59;71.66
80644;BME280;70010;60.224;24.712;2024-02-23T06:49:32;99527.92;;;-0.51;67.59
80644;BME280;70010;60.224;24.712;2024-02-23T06:51:57;99539.55;;;-1.82;70.65
80644;BME280;70010;60.224;24.712;2024-02-23T06:54:23;99538.94;;;0.20;64.94
80644;BME280;70010;60.224;24.712;2024-02-23T06:56:49;99538.60;;;-0.06;67.82
80644;BME280;70010;60.224;24.712;2024-02-23T06:59:14;99533.21;;;-2.29;74.98
80644;BME280;70010;60.224;24.712;2024-02-23T07:01:48;99532.59;;;-0.71;69.86
80644;BME280;70010;60.224;24.712;2024-02-23T07:04:05;99533.34;;;-1.33;71.20
80644;BME280;70010;60.224;24.712;2024-02-23T07:06:30;99526.52;;;-0.73;69.31
80644;BME280;70010;60.224;24.712;2024-02-23T07:08:56;99529.47;;;0.46;65.71
80644;BME280;70010;60.224;24.712;2024-02-23T07:11:21;99528.49;;;-1.20;69.82
80644;BME280;70010;60.224;24.712;2024-02-23T07:13:46;99535.85;;;-0.02;66.29
80644;BME280;70010;60.224;24.712;2024-02-23T07:16:12;99531.80;;;0.39;65.04
80644;BME280;70010;60.224;24.712;2024-02-23T07:18:37;99532.21;;;-2.22;73.92
80644;BME280;70010;60.224;24.712;2024-02-23T07:21:03;99537.73;;;-1.49;71.96
80644;BME280;70010;60.224;24.712;2024-02-23T07:23:29;99532.71;;;-1.30;71.84
80644;BME280;70010;60.224;24.712;2024-02-23T07:25:54;99531.91;;;-1.88;72.43
80644;BME280;70010;60.224;24.712;2024-02-23T07:28:20;99532.70;;;-1.57;73.29
80644;BME280;70010;60.224;24.712;2024-02-23T07:30:45;99531.81;;;-1.57;71.52
80644;BME280;70010;60.224;24.712;2024-02-23T07:33:11;99524.46;;;-0.31;68.33
80644;BME280;70010;60.224;24.712;2024-02-23T07:35:36;99531.44;;;-1.53;70.03
80644;BME280;70010;60.224;24.712;2024-02-23T07:38:01;99524.89;;;0.09;66.62
80644;BME280;70010;60.224;24.712;2024-02-23T07:40:27;99530.07;;;-2.31;74.06
80644;BME280;70010;60.224;24.712;2024-02-23T07:42:52;99533.96;;;-2.44;75.37
80644;BME280;70010;60.224;24.712;2024-02-23T07:45:17;99528.84;;;-2.04;73.85
80644;BME280;70010;60.224;24.712;2024-02-23T07:47:43;99524.52;;;-2.17;74.06
80644;BME280;70010;60.224;24.712;2024-02-23T07:50:09;99524.78;;;-0.21;67.95
80644;BME280;70010;60.224;24.712;2024-02-23T07:52:33;99517.89;;;1.15;63.89
80644;BME280;70010;60.224;24.712;2024-02-23T07:54:59;99526.86;;;-0.24;66.58
80644;BME280;70010;60.224;24.712;2024-02-23T07:57:24;99533.40;;;-1.72;72.47
80644;BME280;70010;60.224;24.712;2024-02-23T07:59:49;99527.03;;;0.23;66.82
80644;BME280;70010;60.224;24.712;2024-02-23T08:02:15;99525.76;;;-0.66;69.55
80644;BME280;70010;60.224;24.712;2024-02-23T08:04:40;99525.84;;;1.15;64.13
80644;BME280;70010;60.224;24.712;2024-02-23T08:07:06;99520.37;;;-0.79;68.61
80644;BME280;70010;60.224;24.712;2024-02-23T08:09:31;99521.55;;;-0.42;67.94
80644;BME280;70010;60.224;24.712;2024-02-23T08:11:56;99521.21;;;-1.55;71.99
80644;BME280;70010;60.224;24.712;2024-02-23T08:14:22;99516.68;;;-0.60;68.59
80644;BME280;70010;60.224;24.712;2024-02-23T08:16:47;99520.86;;;0.04;66.99
80644;BME280;70010;60.224;24.712;2024-02-23T08:19:12;99517.43;;;-1.23;70.25
80644;BME280;70010;60.224;24.712;2024-02-23T08:21:37;99520.11;;;-1.38;70.62
80644;BME280;70010;60.224;24.712;2024-02-23T08:24:03;99512.85;;;-0.54;68.64
80644;BME280;70010;60.224;24.712;2024-02-23T08:26:28;99520.50;;;-2.49;75.11
80644;BME280;70010;60.224;24.712;2024-02-23T08:28:53;99519.14;;;-0.89;71.59
80644;BME280;70010;60.224;24.712;2024-02-23T08:31:20;99520.90;;;-0.96;68.91
80644;BME280;70010;60.224;24.712;2024-02-23T08:33:46;99523.41;;;-0.70;69.98
80644;BME280;70010;60.224;24.712;2024-02-23T08:36:11;99517.00;;;-0.08;67.96
80644;BME280;70010;60.224;24.712;2024-02-23T08:38:37;99513.43;;;-0.29;67.00
80644;BME280;70010;60.224;24.712;2024-02-23T08:41:03;99514.28;;;-0.33;68.49
80644;BME280;70010;60.224;24.712;2024-02-23T08:43:27;99508.19;;;0.47;66.05
80644;BME280;70010;60.224;24.712;2024-02-23T08:45:53;99509.18;;;-0.42;68.44
80644;BME280;70010;60.224;24.712;2024-02-23T08:48:19;99507.48;;;-1.51;71.64
80644;BME280;70010;60.224;24.712;2024-02-23T08:50:44;99507.98;;;-0.04;66.72
80644;BME280;70010;60.224;24.712;2024-02-23T08:53:10;99510.72;;;-2.21;74.59
80644;BME280;70010;60.224;24.712;2024-02-23T08:55:35;99507.65;;;-2.35;76.79
80644;BME280;70010;60.224;24.712;2024-02-23T08:58:01;99488.98;;;-1.34;72.17
80644;BME280;70010;60.224;24.712;2024-02-23T09:00:26;99487.55;;;-0.20;66.99
80644;BME280;70010;60.224;24.712;2024-02-23T09:02:52;99479.26;;;0.22;65.94
80644;BME280;70010;60.224;24.712;2024-02-23T09:05:17;99488.59;;;-1.23;70.39
80644;BME280;70010;60.224;24.712;2024-02-23T09:07:43;99493.92;;;-1.90;75.30
80644;BME280;70010;60.224;24.712;2024-02-23T09:10:08;99497.48;;;-0.47;70.29
80644;BME280;70010;60.224;24.712;2024-02-23T09:12:33;99490.22;;;-0.78;70.16
80644;BME280;70010;60.224;24.712;2024-02-23T09:14:59;99491.60;;;-1.20;71.25
80644;BME280;70010;60.224;24.712;2024-02-23T09:17:25;99484.77;;;-0.16;68.79
80644;BME280;70010;60.224;24.712;2024-02-23T09:19:50;99492.33;;;-1.57;71.08
80644;BME280;70010;60.224;24.712;2024-02-23T09:22:16;99493.63;;;-1.80;73.42
80644;BME280;70010;60.224;24.712;2024-02-23T09:24:41;99489.51;;;-1.92;75.25
80644;BME280;70010;60.224;24.712;2024-02-23T09:27:07;99487.93;;;1.09;64.65
80644;BME280;70010;60.224;24.712;2024-02-23T09:29:32;99495.05;;;-1.51;71.59
80644;BME280;70010;60.224;24.712;2024-02-23T09:31:57;99490.18;;;-1.66;72.10
80644;BME280;70010;60.224;24.712;2024-02-23T09:34:23;99489.88;;;0.37;65.48
80644;BME280;70010;60.224;24.712;2024-02-23T09:36:49;99491.73;;;0.53;64.81
80644;BME280;70010;60.224;24.712;2024-02-23T09:39:14;99486.39;;;-1.86;72.85
80644;BME280;70010;60.224;24.712;2024-02-23T09:41:42;99479.36;;;-0.61;70.88
80644;BME280;70010;60.224;24.712;2024-02-23T09:44:07;99475.69;;;-0.88;69.52
80644;BME280;70010;60.224;24.712;2024-02-23T09:46:32;99471.36;;;-0.99;71.82
80644;BME280;70010;60.224;24.712;2024-02-23T09:48:58;99473.32;;;0.29;68.84
80644;BME280;70010;60.224;24.712;2024-02-23T09:51:23;99474.30;;;-1.76;73.12
80644;BME280;70010;60.224;24.712;2024-02-23T09:53:49;99469.69;;;-0.20;69.39
80644;BME280;70010;60.224;24.712;2024-02-23T09:56:14;99474.11;;;0.39;67.96
80644;BME280;70010;60.224;24.712;2024-02-23T09:58:41;99475.65;;;-2.48;76.27
80644;BME280;70010;60.224;24.712;2024-02-23T10:01:05;99481.34;;;0.73;67.63
80644;BME280;70010;60.224;24.712;2024-02-23T10:03:31;99483.51;;;-1.06;71.17
80644;BME280;70010;60.224;24.712;2024-02-23T10:05:57;99482.72;;;-0.06;69.89
80644;BME280;70010;60.224;24.712;2024-02-23T10:08:23;99480.53;;;-0.32;70.55
80644;BME280;70010;60.224;24.712;2024-02-23T10:10:48;99487.44;;;-1.43;73.99
80644;BME280;70010;60.224;24.712;2024-02-23T10:13:18;99474.74;;;-0.27;69.88
80644;BME280;70010;60.224;24.712;2024-02-23T10:15:40;99477.70;;;0.50;65.98
80644;BME280;70010;60.224;24.712;2024-02-23T10:18:06;99483.07;;;-1.98;74.97
80644;BME280;70010;60.224;24.712;2024-02-23T10:20:31;99473.59;;;-0.64;70.73
80644;BME280;70010;60.224;24.712;2024-02-23T10:22:57;99468.26;;;-0.82;70.02
80644;BME280;70010;60.224;24.712;2024-02-23T10:25:23;99466.17;;;-2.28;76.31
80644;BME280;70010;60.224;24.712;2024-02-23T10:27:48;99477.64;;;-0.85;72.71
80644;BME280;70010;60.224;24.712;2024-02-23T10:30:14;99478.17;;;-1.59;73.04
80644;BME280;70010;60.224;24.712;2024-02-23T10:32:39;99475.65;;;-0.50;71.35
80644;BME280;70010;60.224;24.712;2024-02-23T10:35:09;99480.34;;;-1.65;75.14
80644;BME280;70010;60.224;24.712;2024-02-23T10:37:30;99475.77;;;-1.87;76.08
80644;BME280;70010;60.224;24.712;2024-02-23T10:39:58;99476.20;;;-1.48;75.19
80644;BME280;70010;60.224;24.712;2024-02-23T10:42:23;99476.61;;;-1.65;74.66
80644;BME280;70010;60.224;24.712;2024-02-23T10:44:47;99478.36;;;-1.16;73.64
80644;BME280;70010;60.224;24.712;2024-02-23T10:47:12;99474.12;;;-1.17;73.88
80644;BME280;70010;60.224;24.712;2024-02-23T10:49:38;99469.24;;;-0.16;67.76
80644;BME280;70010;60.224;24.712;2024-02-23T10:52:04;99470.71;;;0.84;65.87
80644;BME280;70010;60.224;24.712;2024-02-23T10:54:28;99462.79;;;1.27;63.50
80644;BME280;70010;60.224;24.712;2024-02-23T10:56:53;99469.46;;;-0.68;68.96
80644;BME280;70010;60.224;24.712;2024-02-23T10:59:19;99458.66;;;-1.07;71.82
80644;BME280;70010;60.224;24.712;2024-02-23T11:01:46;99459.51;;;-1.21;71.30
80644;BME280;70010;60.224;24.712;2024-02-23T11:04:10;99452.30;;;-0.43;69.26
80644;BME280;70010;60.224;24.712;2024-02-23T11:06:35;99453.12;;;-1.71;74.11
80644;BME280;70010;60.224;24.712;2024-02-23T11:09:06;99453.39;;;-0.54;72.53
80644;BME280;70010;60.224;24.712;2024-02-23T11:11:25;99454.62;;;-1.76;75.27
80644;BME280;70010;60.224;24.712;2024-02-23T11:13:55;99462.12;;;0.84;67.14
80644;BME280;70010;60.224;24.712;2024-02-23T11:16:21;99451.53;;;-0.92;70.46
80644;BME280;70010;60.224;24.712;2024-02-23T11:18:42;99456.92;;;-0.72;70.55
80644;BME280;70010;60.224;24.712;2024-02-23T11:21:09;99463.32;;;-1.05;73.19
80644;BME280;70010;60.224;24.712;2024-02-23T11:23:40;99464.21;;;-1.50;71.92
80644;BME280;70010;60.224;24.712;2024-02-23T11:25:59;99468.54;;;-2.40;78.68
80644;BME280;70010;60.224;24.712;2024-02-23T11:28:24;99468.75;;;-0.25;70.62
80644;BME280;70010;60.224;24.712;2024-02-23T11:30:50;99451.64;;;0.09;68.10
80644;BME280;70010;60.224;24.712;2024-02-23T11:33:14;99453.05;;;1.17;66.28
80644;BME280;70010;60.224;24.712;2024-02-23T11:35:46;99444.99;;;0.80;66.61
80644;BME280;70010;60.224;24.712;2024-02-23T11:38:05;99441.96;;;1.72;62.90
80644;BME280;70010;60.224;24.712;2024-02-23T11:40:31;99454.22;;;-0.41;68.67
80644;BME280;70010;60.224;24.712;2024-02-23T11:42:56;99455.45;;;-0.75;69.67
80644;BME280;70010;60.224;24.712;2024-02-23T11:45:22;99460.27;;;-1.55;74.42
80644;BME280;70010;60.224;24.712;2024-02-23T11:47:47;99450.11;;;-1.21;71.99
80644;BME280;70010;60.224;24.712;2024-02-23T11:50:13;99454.40;;;-1.27;74.03
80644;BME280;70010;60.224;24.712;2024-02-23T11:52:38;99466.14;;;-1.38;75.22
80644;BME280;70010;60.224;24.712;2024-02-23T11:55:03;99460.42;;;0.12;69.25
80644;BME280;70010;60.224;24.712;2024-02-23T11:57:29;99457.16;;;0.45;67.80
80644;BME280;70010;60.224;24.712;2024-02-23T11:59:54;99460.31;;;-0.94;72.71
80644;BME280;70010;60.224;24.712;2024-02-23T12:02:19;99456.81;;;-0.85;69.95
80644;BME280;70010;60.224;24.712;2024-02-23T12:04:45;99449.28;;;-1.32;72.58
80644;BME280;70010;60.224;24.712;2024-02-23T12:07:11;99458.29;;;-0.43;69.50
80644;BME280;70010;60.224;24.712;2024-02-23T12:09:36;99454.58;;;-0.70;70.74
80644;BME280;70010;60.224;24.712;2024-02-23T12:12:02;99461.68;;;-1.77;75.07
80644;BME280;70010;60.224;24.712;2024-02-23T12:14:27;99462.76;;;-1.58;74.60
80644;BME280;70010;60.224;24.712;2024-02-23T12:16:53;99460.68;;;-2.05;76.23
80644;BME280;70010;60.224;24.712;2024-02-23T12:19:18;99461.48;;;-2.78;81.38
80644;BME280;70010;60.224;24.712;2024-02-23T12:21:45;99461.98;;;-1.39;75.22
80644;BME280;70010;60.224;24.712;2024-02-23T12:24:09;99464.46;;;-0.56;71.18
80644;BME280;70010;60.224;24.712;2024-02-23T12:26:34;99465.87;;;-1.84;77.06
80644;BME280;70010;60.224;24.712;2024-02-23T12:29:01;99460.55;;;-1.22;73.91
80644;BME280;70010;60.224;24.712;2024-02-23T12:31:24;99463.63;;;-1.56;74.21
80644;BME280;70010;60.224;24.712;2024-02-23T12:33:50;99459.76;;;-2.38;78.58
80644;BME280;70010;60.224;24.712;2024-02-23T12:36:15;99464.78;;;-1.80;80.07
80644;BME280;70010;60.224;24.712;2024-02-23T12:38:40;99461.72;;;-0.64;72.95
80644;BME280;70010;60.224;24.712;2024-02-23T12:41:06;99471.37;;;0.26;68.01
80644;BME280;70010;60.224;24.712;2024-02-23T12:43:32;99468.16;;;0.39;66.55